createdAt,value
2019-05-06T00:00:14.604Z,22.83
2019-05-06T00:03:00.346Z,31.03
2019-05-06T00:05:34.117Z,30.87
2019-05-06T00:08:09.126Z,24.93
2019-05-06T00:10:39.957Z,21.90
2019-05-06T00:13:17.344Z,24.77
2019-05-06T00:15:47.394Z,20.23
2019-05-06T00:18:17.250Z,18.00
2019-05-06T00:20:48.768Z,16.23
2019-05-06T00:23:24.960Z,18.80
2019-05-06T00:26:15.213Z,31.63
2019-05-06T00:28:48.203Z,16.13
2019-05-06T00:31:19.297Z,27.27
2019-05-06T00:33:50.323Z,25.73
2019-05-06T00:36:25.745Z,22.60
2019-05-06T00:38:58.514Z,26.47
2019-05-06T00:41:30.568Z,18.63
2019-05-06T00:44:00.528Z,13.53
2019-05-06T00:46:30.979Z,18.20
2019-05-06T00:49:03.795Z,36.87
2019-05-06T00:51:34.024Z,33.07
2019-05-06T00:54:16.921Z,22.63
2019-05-06T00:56:50.463Z,35.33
2019-05-06T00:59:21.076Z,14.20
2019-05-06T01:01:53.742Z,31.60
2019-05-06T01:04:24.514Z,42.03
2019-05-06T01:06:54.468Z,23.90
2019-05-06T01:09:25.602Z,25.87
2019-05-06T01:11:57.983Z,23.83
2019-05-06T01:14:37.467Z,15.47
2019-05-06T01:17:15.754Z,17.40
2019-05-06T01:20:00.850Z,39.50
2019-05-06T01:22:46.039Z,33.87
2019-05-06T01:25:23.643Z,18.40
2019-05-06T01:27:56.245Z,17.03
2019-05-06T01:30:34.660Z,23.80
2019-05-06T01:33:11.345Z,13.93
2019-05-06T01:35:44.232Z,35.57
2019-05-06T01:38:25.322Z,17.57
2019-05-06T01:41:15.490Z,20.30
2019-05-06T01:43:54.649Z,33.07
2019-05-06T01:46:26.368Z,30.67
2019-05-06T01:48:58.598Z,26.53
2019-05-06T01:51:29.870Z,24.80
2019-05-06T01:54:00.362Z,23.20
2019-05-06T01:56:44.648Z,21.60
2019-05-06T01:59:14.318Z,19.00
2019-05-06T02:01:56.892Z,25.63
2019-05-06T02:04:17.278Z,37.00
2019-05-06T02:06:46.872Z,32.97
2019-05-06T02:09:17.686Z,20.60
2019-05-06T02:11:48.097Z,21.53
2019-05-06T02:14:18.348Z,16.90
2019-05-06T02:16:48.060Z,31.83
2019-05-06T02:19:18.358Z,25.43
2019-05-06T02:22:10.100Z,21.77
2019-05-06T02:24:47.617Z,28.67
2019-05-06T02:27:17.360Z,17.97
2019-05-06T02:29:56.077Z,25.47
2019-05-06T02:32:36.040Z,30.77
2019-05-06T02:35:26.245Z,22.93
2019-05-06T02:37:57.644Z,32.37
2019-05-06T02:40:32.965Z,23.67
2019-05-06T02:43:03.280Z,26.83
2019-05-06T02:45:33.512Z,30.47
2019-05-06T02:48:15.495Z,25.03
2019-05-06T02:51:04.534Z,36.97
2019-05-06T02:53:34.390Z,32.00
2019-05-06T02:56:04.665Z,27.17
2019-05-06T02:58:36.991Z,29.73
2019-05-06T03:01:07.061Z,26.43
2019-05-06T03:03:43.468Z,34.20
2019-05-06T03:06:13.180Z,28.27
2019-05-06T03:08:43.667Z,37.27
2019-05-06T03:11:13.986Z,24.50
2019-05-06T03:13:44.168Z,27.53
2019-05-06T03:16:14.341Z,35.20
2019-05-06T03:18:44.200Z,45.00
2019-05-06T03:21:44.873Z,37.67
2019-05-06T03:24:33.076Z,30.33
2019-05-06T03:27:04.499Z,53.43
2019-05-06T03:29:34.438Z,38.50
2019-05-06T03:32:07.109Z,26.50
2019-05-06T03:34:57.064Z,29.13
2019-05-06T03:37:08.403Z,27.03
2019-05-06T03:39:38.501Z,30.53
2019-05-06T03:42:08.404Z,27.33
2019-05-06T03:44:43.713Z,37.53
2019-05-06T03:47:38.459Z,42.87
2019-05-06T03:50:13.361Z,32.23
2019-05-06T03:52:45.123Z,31.90
2019-05-06T03:55:15.037Z,26.70
2019-05-06T03:57:46.590Z,33.60
2019-05-06T04:00:16.645Z,24.70
2019-05-06T04:02:46.776Z,33.70
2019-05-06T04:05:17.587Z,36.83
2019-05-06T04:07:48.331Z,30.50
2019-05-06T04:10:18.596Z,31.60
2019-05-06T04:12:53.488Z,38.07
2019-05-06T04:15:26.703Z,26.37
2019-05-06T04:17:59.432Z,43.37
2019-05-06T04:20:43.559Z,46.80
2019-05-06T04:23:33.150Z,37.80
2019-05-06T04:26:09.226Z,28.40
2019-05-06T04:28:39.470Z,28.37
2019-05-06T04:31:13.160Z,36.00
2019-05-06T04:33:49.904Z,26.60
2019-05-06T04:36:13.800Z,29.40
2019-05-06T04:38:43.961Z,47.30
2019-05-06T04:41:16.694Z,34.80
2019-05-06T04:43:46.675Z,39.40
2019-05-06T04:46:16.919Z,37.30
2019-05-06T04:48:47.019Z,30.83
2019-05-06T04:51:17.250Z,28.83
2019-05-06T04:53:47.373Z,27.20
2019-05-06T04:56:19.698Z,28.23
2019-05-06T04:58:49.447Z,37.93
2019-05-06T05:01:19.274Z,33.03
2019-05-06T05:03:48.960Z,49.30
2019-05-06T05:06:18.821Z,45.37
2019-05-06T05:08:48.848Z,24.67
2019-05-06T05:11:35.108Z,34.63
2019-05-06T05:14:25.874Z,30.10
2019-05-06T05:17:22.425Z,32.20
2019-05-06T05:19:54.035Z,34.97
2019-05-06T05:22:23.961Z,54.00
2019-05-06T05:24:57.188Z,27.87
2019-05-06T05:27:27.090Z,25.70
2019-05-06T05:29:57.188Z,52.90
2019-05-06T05:32:27.080Z,28.93
2019-05-06T05:34:57.184Z,46.90
2019-05-06T05:37:26.831Z,41.57
2019-05-06T05:39:57.076Z,49.83
2019-05-06T05:42:42.386Z,38.23
2019-05-06T05:45:12.935Z,53.77
2019-05-06T05:47:46.450Z,43.73
2019-05-06T05:50:29.118Z,27.93
2019-05-06T05:52:59.588Z,32.70
2019-05-06T05:55:33.076Z,49.53
2019-05-06T05:58:25.035Z,50.40
2019-05-06T06:00:54.493Z,34.33
2019-05-06T06:03:29.639Z,32.50
2019-05-06T06:06:00.172Z,40.37
2019-05-06T06:08:32.254Z,45.23
2019-05-06T06:11:08.673Z,39.43
2019-05-06T06:13:38.801Z,37.77
2019-05-06T06:16:30.221Z,31.73
2019-05-06T06:19:13.065Z,41.93
2019-05-06T06:21:52.274Z,25.80
2019-05-06T06:24:32.054Z,43.50
2019-05-06T06:27:06.260Z,45.20
2019-05-06T06:29:38.596Z,52.07
2019-05-06T06:32:18.565Z,36.37
2019-05-06T06:35:08.367Z,49.37
2019-05-06T06:37:48.541Z,60.00
2019-05-06T06:40:23.185Z,56.93
2019-05-06T06:43:02.152Z,44.03
2019-05-06T06:45:32.686Z,41.53
2019-05-06T06:48:03.083Z,41.03
2019-05-06T06:50:33.377Z,40.83
2019-05-06T06:53:05.075Z,40.53
2019-05-06T06:55:35.020Z,43.43
2019-05-06T06:58:22.716Z,48.57
2019-05-06T07:01:03.172Z,45.87
2019-05-06T07:03:46.957Z,39.13
2019-05-06T07:06:33.181Z,49.37
2019-05-06T07:09:05.140Z,30.70
2019-05-06T07:11:35.955Z,32.83
2019-05-06T07:14:08.537Z,34.83
2019-05-06T07:16:43.219Z,40.53
2019-05-06T07:19:15.250Z,33.97
2019-05-06T07:21:54.868Z,26.87
2019-05-06T07:24:25.438Z,35.13
2019-05-06T07:27:03.042Z,33.83
2019-05-06T07:29:32.976Z,38.33
2019-05-06T07:32:02.860Z,43.60
2019-05-06T07:34:35.182Z,97.20
2019-05-06T07:37:05.031Z,42.57
2019-05-06T07:39:35.201Z,31.83
2019-05-06T07:42:13.246Z,48.50
2019-05-06T07:45:08.764Z,47.57
2019-05-06T07:48:03.616Z,25.37
2019-05-06T07:50:37.079Z,45.47
2019-05-06T07:53:06.795Z,43.97
2019-05-06T07:55:37.985Z,44.90
2019-05-06T07:58:09.665Z,33.83
2019-05-06T08:00:45.629Z,41.47
2019-05-06T08:03:22.577Z,41.80
2019-05-06T08:05:58.196Z,41.70
2019-05-06T08:08:23.707Z,29.23
2019-05-06T08:10:54.298Z,63.80
2019-05-06T08:13:24.319Z,62.33
2019-05-06T08:15:54.614Z,37.97
2019-05-06T08:18:24.197Z,21.27
2019-05-06T08:20:54.132Z,32.90
2019-05-06T08:23:52.244Z,36.03
2019-05-06T08:26:22.527Z,32.13
2019-05-06T08:28:52.877Z,29.13
2019-05-06T08:31:23.343Z,28.40
2019-05-06T08:33:53.234Z,27.23
2019-05-06T08:36:30.254Z,47.17
2019-05-06T08:39:08.085Z,22.80
2019-05-06T08:41:42.662Z,28.10
2019-05-06T08:44:14.727Z,24.43
2019-05-06T08:46:44.505Z,22.57
2019-05-06T08:49:14.186Z,22.30
2019-05-06T08:51:53.570Z,28.23
2019-05-06T08:54:32.346Z,21.50
2019-05-06T08:57:04.768Z,20.33
2019-05-06T08:59:35.194Z,27.50
2019-05-06T09:02:08.822Z,24.70
2019-05-06T09:04:38.857Z,36.00
2019-05-06T09:07:09.028Z,10.43
2019-05-06T09:09:42.197Z,15.23
2019-05-06T09:12:14.973Z,20.77
2019-05-06T09:14:46.354Z,17.33
2019-05-06T09:17:16.581Z,28.33
2019-05-06T09:19:46.609Z,24.23
2019-05-06T09:22:23.648Z,16.70
2019-05-06T09:24:54.017Z,20.10
2019-05-06T09:27:43.116Z,18.63
2019-05-06T09:30:23.021Z,26.60
2019-05-06T09:32:53.152Z,21.30
2019-05-06T09:35:23.225Z,24.50
2019-05-06T09:37:53.544Z,14.50
2019-05-06T09:40:25.966Z,54.77
2019-05-06T09:42:58.390Z,33.83
2019-05-06T09:45:28.374Z,38.23
2019-05-06T09:48:13.019Z,24.50
2019-05-06T09:50:47.382Z,35.47
2019-05-06T09:53:29.926Z,40.93
2019-05-06T09:56:17.588Z,34.83
2019-05-06T09:58:52.973Z,23.30
2019-05-06T10:01:25.194Z,32.07
2019-05-06T10:03:56.198Z,18.77
2019-05-06T10:06:36.084Z,23.43
2019-05-06T10:09:16.237Z,30.13
2019-05-06T10:11:46.402Z,23.10
2019-05-06T10:14:23.373Z,36.97
2019-05-06T10:16:54.112Z,45.67
2019-05-06T10:19:28.040Z,44.30
2019-05-06T10:21:57.817Z,30.07
2019-05-06T10:24:28.641Z,26.40
2019-05-06T10:26:59.633Z,75.77
2019-05-06T10:29:40.540Z,27.27
2019-05-06T10:32:32.771Z,38.67
2019-05-06T10:35:05.158Z,34.47
2019-05-06T10:38:03.896Z,40.13
2019-05-06T10:40:57.356Z,29.93
2019-05-06T10:43:57.155Z,33.70
2019-05-06T10:46:27.832Z,34.73
2019-05-06T10:48:59.215Z,64.23
2019-05-06T10:51:35.614Z,54.93
2019-05-06T10:54:16.784Z,39.93
2019-05-06T10:57:12.414Z,28.90
2019-05-06T10:59:42.907Z,22.23
2019-05-06T11:02:28.005Z,53.87
2019-05-06T11:04:58.339Z,72.63
2019-05-06T11:07:32.074Z,34.47
2019-05-06T11:10:20.487Z,36.13
2019-05-06T11:12:43.102Z,31.80
2019-05-06T11:15:14.343Z,29.17
2019-05-06T11:17:55.193Z,45.57
2019-05-06T11:20:33.520Z,57.07
2019-05-06T11:23:05.206Z,38.63
2019-05-06T11:25:40.343Z,71.43
2019-05-06T11:28:30.106Z,37.87
2019-05-06T11:31:22.964Z,61.13
2019-05-06T11:34:05.133Z,18.93
2019-05-06T11:36:45.165Z,28.63
2019-05-06T11:39:15.177Z,30.80
2019-05-06T11:42:06.284Z,32.83
2019-05-06T11:44:25.177Z,74.73
2019-05-06T11:46:59.477Z,32.87
2019-05-06T11:49:39.669Z,34.37
2019-05-06T11:52:34.435Z,21.03
2019-05-06T11:55:05.206Z,26.93
2019-05-06T11:57:44.590Z,41.63
2019-05-06T12:00:19.559Z,21.87
2019-05-06T12:02:53.297Z,27.33
2019-05-06T12:05:32.899Z,45.50
2019-05-06T12:08:07.822Z,34.60
2019-05-06T12:10:35.205Z,28.70
2019-05-06T12:13:07.573Z,22.43
2019-05-06T12:15:42.207Z,30.70
2019-05-06T12:18:15.772Z,18.40
2019-05-06T12:20:52.770Z,19.70
2019-05-06T12:23:22.680Z,20.33
2019-05-06T12:25:53.007Z,22.30
2019-05-06T12:28:23.654Z,36.83
2019-05-06T12:30:57.349Z,30.70
2019-05-06T12:33:35.045Z,21.37
2019-05-06T12:36:32.651Z,16.03
2019-05-06T12:39:25.902Z,21.70
2019-05-06T12:42:23.272Z,15.30
2019-05-06T12:45:08.763Z,22.93
2019-05-06T12:48:13.732Z,14.87
2019-05-06T12:50:44.326Z,34.50
2019-05-06T12:53:16.157Z,19.30
2019-05-06T12:55:47.349Z,27.20
2019-05-06T12:58:20.181Z,25.27
2019-05-06T13:00:48.790Z,33.60
2019-05-06T13:03:19.913Z,25.53
2019-05-06T13:06:07.250Z,57.60
2019-05-06T13:08:52.886Z,50.40
2019-05-06T13:11:06.470Z,22.10
2019-05-06T13:13:46.444Z,22.70
2019-05-06T13:16:19.542Z,23.87
2019-05-06T13:19:16.358Z,22.80
2019-05-06T13:22:03.855Z,45.80
2019-05-06T13:24:51.994Z,29.83
2019-05-06T13:27:52.865Z,20.27
2019-05-06T13:30:28.284Z,30.57
2019-05-06T13:33:18.933Z,34.13
2019-05-06T13:35:53.085Z,29.47
2019-05-06T13:38:43.502Z,31.07
2019-05-06T13:41:17.805Z,27.80
2019-05-06T13:44:22.671Z,23.83
2019-05-06T13:46:59.844Z,29.20
2019-05-06T13:50:08.770Z,29.63
2019-05-06T13:53:14.032Z,45.80
2019-05-06T13:56:12.082Z,35.67
2019-05-06T14:02:55.068Z,29.37
2019-05-06T14:05:27.455Z,43.43
2019-05-06T14:08:18.614Z,27.80
2019-05-06T14:11:13.199Z,36.00
2019-05-06T14:14:09.367Z,81.77
2019-05-06T14:16:55.824Z,36.33
2019-05-06T14:19:53.138Z,35.97
2019-05-06T14:22:32.588Z,25.57
2019-05-06T14:25:48.217Z,22.20
2019-05-06T14:28:53.437Z,59.70
2019-05-06T14:31:35.726Z,57.27
2019-05-06T14:34:39.309Z,40.37
2019-05-06T14:37:16.748Z,36.07
2019-05-06T14:39:58.959Z,47.07
2019-05-06T14:42:45.032Z,33.47
2019-05-06T14:45:23.151Z,34.67
2019-05-06T14:47:58.296Z,28.93
2019-05-06T14:50:48.753Z,54.90
2019-05-06T14:53:23.934Z,63.20
2019-05-06T14:56:02.383Z,51.33
2019-05-06T14:58:42.736Z,38.20
2019-05-06T15:01:26.851Z,31.23
2019-05-06T15:04:14.139Z,26.60
2019-05-06T15:06:48.652Z,40.50
2019-05-06T15:09:32.974Z,25.70
2019-05-06T15:15:52.214Z,25.00
2019-05-06T15:18:26.331Z,74.27
2019-05-06T15:21:36.201Z,38.60
2019-05-06T15:27:22.796Z,32.57
2019-05-06T15:30:43.628Z,23.55
2019-05-06T15:37:28.704Z,55.90
2019-05-06T15:43:30.174Z,23.77
2019-05-06T15:49:18.669Z,32.47
2019-05-06T15:52:15.733Z,26.57
2019-05-06T15:55:24.569Z,38.47
2019-05-06T15:58:26.094Z,34.20
2019-05-06T16:00:58.054Z,25.13
2019-05-06T16:04:07.897Z,27.37
2019-05-06T16:06:52.700Z,25.33
2019-05-06T16:09:32.523Z,35.27
2019-05-06T16:12:13.186Z,46.07
2019-05-06T16:15:15.416Z,38.03
2019-05-06T16:18:12.908Z,33.13
2019-05-06T16:20:57.499Z,42.97
2019-05-06T16:28:02.278Z,36.23
2019-05-06T16:41:16.977Z,32.90
2019-05-06T16:44:09.565Z,40.03
2019-05-06T16:48:17.401Z,36.17
2019-05-06T16:54:58.765Z,113.53
2019-05-06T16:58:07.270Z,222.30
2019-05-06T17:00:42.945Z,32.63
2019-05-06T17:04:29.046Z,98.90
2019-05-06T17:07:26.595Z,63.57
2019-05-06T17:10:03.742Z,49.83
2019-05-06T17:12:59.757Z,82.77
2019-05-06T17:16:02.347Z,97.17
2019-05-06T17:21:53.511Z,53.33
2019-05-06T17:35:05.232Z,72.87
2019-05-06T17:38:03.942Z,30.30
2019-05-06T17:40:35.739Z,36.53
2019-05-06T17:43:07.987Z,40.00
2019-05-06T17:46:02.562Z,29.93
2019-05-06T17:48:57.772Z,242.00
2019-05-06T17:52:17.769Z,69.07
2019-05-06T17:55:05.926Z,35.90
2019-05-06T17:57:42.403Z,39.60
2019-05-06T18:00:16.426Z,263.30
2019-05-06T18:02:46.617Z,313.60
2019-05-06T18:05:19.329Z,109.37
2019-05-06T18:07:53.702Z,70.33
2019-05-06T18:10:27.099Z,80.53
2019-05-06T18:13:00.369Z,36.00
2019-05-06T18:15:35.208Z,37.90
2019-05-06T18:18:16.929Z,54.87
2019-05-06T18:20:49.683Z,54.10
2019-05-06T18:23:27.684Z,383.07
2019-05-06T18:26:29.781Z,126.57
2019-05-06T18:29:23.932Z,74.17
2019-05-06T18:32:24.480Z,122.17
2019-05-06T18:35:24.144Z,110.27
2019-05-06T18:38:12.137Z,147.00
2019-05-06T18:41:23.614Z,97.60
2019-05-06T18:44:15.508Z,89.20
2019-05-06T18:47:02.709Z,155.97
2019-05-06T18:49:43.778Z,192.63
2019-05-06T18:52:23.732Z,167.37
2019-05-06T18:54:56.091Z,337.30
2019-05-06T18:57:28.174Z,159.47
2019-05-06T19:00:32.628Z,173.03
2019-05-06T19:03:27.554Z,151.13
2019-05-06T19:05:58.222Z,192.87
2019-05-06T19:09:03.345Z,125.43
2019-05-06T19:11:44.103Z,123.43
2019-05-06T19:14:26.024Z,94.63
2019-05-06T19:17:02.699Z,164.80
2019-05-06T19:19:42.434Z,413.40
2019-05-06T19:22:15.307Z,204.27
2019-05-06T19:24:55.382Z,269.77
2019-05-06T19:27:42.085Z,235.03
2019-05-06T19:30:17.268Z,213.80
2019-05-06T19:33:05.444Z,269.53
2019-05-06T19:35:48.831Z,118.57
2019-05-06T19:38:42.187Z,281.17
2019-05-06T19:41:12.881Z,290.33
2019-05-06T19:43:44.085Z,109.53
2019-05-06T19:46:14.779Z,177.23
2019-05-06T19:49:07.595Z,175.50
2019-05-06T19:51:56.433Z,163.43
2019-05-06T19:55:15.660Z,95.63
2019-05-06T19:59:36.800Z,269.00
2019-05-06T20:01:36.823Z,174.40
2019-05-06T20:04:28.876Z,354.60
2019-05-06T20:07:07.618Z,180.00
2019-05-06T20:09:56.370Z,206.73
2019-05-06T20:12:40.233Z,95.43
2019-05-06T20:15:29.596Z,122.50
2019-05-06T20:18:03.099Z,59.33
2019-05-06T20:20:45.226Z,152.63
2019-05-06T20:23:29.350Z,72.40
2019-05-06T20:26:02.711Z,140.83
2019-05-06T20:28:36.398Z,171.93
2019-05-06T20:31:29.075Z,214.23
2019-05-06T20:34:16.895Z,130.40
2019-05-06T20:36:55.593Z,189.57
2019-05-06T20:39:36.173Z,323.17
2019-05-06T20:42:07.280Z,320.37
2019-05-06T20:45:07.602Z,64.97
2019-05-06T20:47:44.090Z,89.60
2019-05-06T20:50:19.715Z,68.97
2019-05-06T20:52:59.508Z,106.17
2019-05-06T20:55:46.201Z,156.80
2019-05-06T20:58:34.712Z,89.70
2019-05-06T21:01:06.697Z,165.97
2019-05-06T21:03:38.476Z,168.70
2019-05-06T21:06:13.296Z,185.30
2019-05-06T21:09:14.247Z,132.90
2019-05-06T21:11:48.216Z,76.33
2019-05-06T21:14:22.549Z,53.70
2019-05-06T21:17:18.556Z,71.53
2019-05-06T21:19:53.707Z,65.97
2019-05-06T21:22:38.057Z,70.57
2019-05-06T21:25:12.952Z,93.77
2019-05-06T21:27:47.436Z,72.33
2019-05-06T21:30:21.564Z,70.20
2019-05-06T21:32:53.193Z,69.83
2019-05-06T21:35:48.730Z,40.37
2019-05-06T21:38:19.117Z,43.80
2019-05-06T21:40:52.541Z,46.07
2019-05-06T21:43:24.870Z,50.93
2019-05-06T21:46:05.076Z,40.00
2019-05-06T21:48:36.609Z,30.30
2019-05-06T21:51:16.084Z,44.23
2019-05-06T21:53:53.600Z,42.07
2019-05-06T21:56:25.384Z,34.20
2019-05-06T21:58:55.632Z,59.50
2019-05-06T22:01:29.701Z,48.03
2019-05-06T22:04:04.687Z,28.80
2019-05-06T22:06:37.500Z,32.13
2019-05-06T22:09:08.180Z,51.53
2019-05-06T22:11:38.845Z,100.97
2019-05-06T22:14:09.340Z,57.23
2019-05-06T22:16:39.163Z,33.27
2019-05-06T22:19:09.278Z,30.03
2019-05-06T22:21:45.210Z,38.50
2019-05-06T22:24:17.689Z,39.37
2019-05-06T22:26:48.424Z,39.60
2019-05-06T22:29:21.696Z,49.90
2019-05-06T22:31:56.648Z,32.73
2019-05-06T22:34:32.946Z,43.70
2019-05-06T22:37:09.082Z,49.33
2019-05-06T22:39:43.257Z,45.37
2019-05-06T22:42:13.270Z,50.13
2019-05-06T22:44:43.195Z,51.03
2019-05-06T22:47:16.223Z,46.13
2019-05-06T22:49:46.332Z,47.30
2019-05-06T22:52:19.896Z,43.13
2019-05-06T22:54:49.789Z,37.00
2019-05-06T22:57:20.586Z,87.47
2019-05-06T22:59:52.338Z,47.83
2019-05-06T23:02:47.268Z,53.90
2019-05-06T23:05:17.931Z,66.80
2019-05-06T23:07:47.937Z,59.10
2019-05-06T23:10:24.540Z,62.47
2019-05-06T23:12:57.420Z,61.13
2019-05-06T23:15:29.669Z,46.13
2019-05-06T23:18:02.314Z,52.20
2019-05-06T23:20:32.572Z,36.77
2019-05-06T23:23:04.911Z,39.43
2019-05-06T23:25:35.097Z,45.07
2019-05-06T23:28:05.079Z,58.87
2019-05-06T23:30:36.368Z,44.80
2019-05-06T23:33:08.660Z,38.17
2019-05-06T23:35:39.121Z,40.47
2019-05-06T23:38:46.230Z,33.70
2019-05-06T23:41:52.891Z,54.17
2019-05-06T23:45:02.197Z,46.50
2019-05-06T23:48:15.255Z,46.03
2019-05-06T23:51:22.326Z,41.67
2019-05-06T23:54:33.280Z,49.17
2019-05-06T23:57:04.052Z,52.17
2019-05-06T23:59:33.867Z,41.30
